sensor_id;sensor_type;location;lat;lon;timestamp;pressure;altitude;pressure_sealevel;temperature;humidity
7990;BME280;4040;42.848;23.034;2022-09-02T00:05:16;94644.91;;;19.26;100.00
7990;BME280;4040;42.848;23.034;2022-09-02T00:11:09;94646.19;;;18.98;100.00
7990;BME280;4040;42.848;23.034;2022-09-02T00:16:59;94633.53;;;19.28;100.00
7990;BME280;4040;42.848;23.034;2022-09-02T00:22:49;94642.03;;;19.21;100.00
7990;BME280;4040;42.848;23.034;2022-09-02T00:28:39;94644.78;;;19.21;100.00
7990;BME280;4040;42.848;23.034;2022-09-02T00:34:28;94649.31;;;19.24;100.00
7990;BME280;4040;42.848;23.034;2022-09-02T00:40:17;94660.09;;;19.09;100.00
7990;BME280;4040;42.848;23.034;2022-09-02T00:46:08;94655.13;;;18.81;100.00
7990;BME280;4040;42.848;23.034;2022-09-02T00:52:00;94659.09;;;18.80;100.00
7990;BME280;4040;42.848;23.034;2022-09-02T00:57:52;94657.53;;;19.15;100.00
7990;BME280;4040;42.848;23.034;2022-09-02T01:03:45;94656.25;;;19.34;100.00
7990;BME280;4040;42.848;23.034;2022-09-02T01:09:33;94663.88;;;19.12;100.00
7990;BME280;4040;42.848;23.034;2022-09-02T01:15:24;94674.22;;;18.90;100.00
7990;BME280;4040;42.848;23.034;2022-09-02T01:21:15;94682.41;;;19.08;100.00
7990;BME280;4040;42.848;23.034;2022-09-02T01:27:06;94685.13;;;19.26;100.00
7990;BME280;4040;42.848;23.034;2022-09-02T01:32:54;94688.34;;;18.79;100.00
7990;BME280;4040;42.848;23.034;2022-09-02T01:38:43;94677.28;;;18.83;100.00
7990;BME280;4040;42.848;23.034;2022-09-02T01:44:34;94697.13;;;18.92;100.00
7990;BME280;4040;42.848;23.034;2022-09-02T01:50:30;94691.22;;;18.76;100.00
7990;BME280;4040;42.848;23.034;2022-09-02T01:56:19;94669.72;;;18.42;100.00
7990;BME280;4040;42.848;23.034;2022-09-02T02:02:09;94673.66;;;18.68;100.00
7990;BME280;4040;42.848;23.034;2022-09-02T02:11:59;94665.91;;;18.75;100.00
7990;BME280;4040;42.848;23.034;2022-09-02T02:17:49;94658.19;;;18.65;100.00
7990;BME280;4040;42.848;23.034;2022-09-02T02:23:38;94650.78;;;18.56;100.00
7990;BME280;4040;42.848;23.034;2022-09-02T02:29:27;94632.44;;;18.66;100.00
7990;BME280;4040;42.848;23.034;2022-09-02T02:35:18;94619.69;;;18.72;100.00
7990;BME280;4040;42.848;23.034;2022-09-02T02:41:07;94638.66;;;18.30;100.00
7990;BME280;4040;42.848;23.034;2022-09-02T02:46:56;94626.69;;;18.37;100.00
7990;BME280;4040;42.848;23.034;2022-09-02T02:52:47;94612.00;;;18.34;100.00
7990;BME280;4040;42.848;23.034;2022-09-02T02:58:46;94599.72;;;18.12;100.00
7990;BME280;4040;42.848;23.034;2022-09-02T03:04:35;94605.16;;;18.03;100.00
7990;BME280;4040;42.848;23.034;2022-09-02T03:14:49;94618.94;;;17.99;100.00
7990;BME280;4040;42.848;23.034;2022-09-02T03:20:39;94625.13;;;17.82;100.00
7990;BME280;4040;42.848;23.034;2022-09-02T03:26:28;94616.78;;;17.77;100.00
7990;BME280;4040;42.848;23.034;2022-09-02T03:32:18;94618.44;;;17.74;100.00
7990;BME280;4040;42.848;23.034;2022-09-02T03:38:07;94621.22;;;18.01;100.00
7990;BME280;4040;42.848;23.034;2022-09-02T03:43:56;94637.19;;;17.72;100.00
7990;BME280;4040;42.848;23.034;2022-09-02T03:49:46;94636.28;;;17.75;100.00
7990;BME280;4040;42.848;23.034;2022-09-02T03:55:36;94645.66;;;17.74;100.00
7990;BME280;4040;42.848;23.034;2022-09-02T04:01:26;94635.97;;;17.64;100.00
7990;BME280;4040;42.848;23.034;2022-09-02T04:07:16;94655.44;;;18.02;100.00
7990;BME280;4040;42.848;23.034;2022-09-02T04:17:26;94668.16;;;18.14;100.00
7990;BME280;4040;42.848;23.034;2022-09-02T04:23:16;94679.34;;;18.16;100.00
7990;BME280;4040;42.848;23.034;2022-09-02T04:29:05;94685.09;;;18.18;100.00
7990;BME280;4040;42.848;23.034;2022-09-02T04:34:55;94692.13;;;18.37;100.00
7990;BME280;4040;42.848;23.034;2022-09-02T04:40:46;94699.41;;;18.40;100.00
7990;BME280;4040;42.848;23.034;2022-09-02T04:46:35;94698.66;;;18.48;100.00
7990;BME280;4040;42.848;23.034;2022-09-02T04:52:24;94696.66;;;18.40;100.00
7990;BME280;4040;42.848;23.034;2022-09-02T04:58:14;94705.94;;;18.42;100.00
7990;BME280;4040;42.848;23.034;2022-09-02T05:04:04;94707.91;;;18.42;100.00
7990;BME280;4040;42.848;23.034;2022-09-02T05:09:55;94707.28;;;18.47;100.00
7990;BME280;4040;42.848;23.034;2022-09-02T05:20:08;94721.53;;;18.60;100.00
7990;BME280;4040;42.848;23.034;2022-09-02T05:25:57;94716.41;;;18.53;100.00
7990;BME280;4040;42.848;23.034;2022-09-02T05:31:46;94713.81;;;18.76;100.00
7990;BME280;4040;42.848;23.034;2022-09-02T05:37:36;94711.53;;;18.93;100.00
7990;BME280;4040;42.848;23.034;2022-09-02T05:43:25;94717.59;;;18.79;100.00
7990;BME280;4040;42.848;23.034;2022-09-02T05:49:14;94706.53;;;19.00;100.00
7990;BME280;4040;42.848;23.034;2022-09-02T05:55:07;94709.69;;;19.35;100.00
7990;BME280;4040;42.848;23.034;2022-09-02T06:00:55;94705.06;;;19.50;100.00
7990;BME280;4040;42.848;23.034;2022-09-02T06:06:44;94718.72;;;19.50;100.00
7990;BME280;4040;42.848;23.034;2022-09-02T06:12:35;94705.03;;;19.59;100.00
7990;BME280;4040;42.848;23.034;2022-09-02T06:22:45;94710.00;;;19.69;100.00
7990;BME280;4040;42.848;23.034;2022-09-02T06:28:36;94717.91;;;20.09;100.00
7990;BME280;4040;42.848;23.034;2022-09-02T06:34:25;94715.78;;;20.36;100.00
7990;BME280;4040;42.848;23.034;2022-09-02T06:40:14;94696.22;;;20.67;100.00
7990;BME280;4040;42.848;23.034;2022-09-02T06:46:07;94694.25;;;21.34;100.00
7990;BME280;4040;42.848;23.034;2022-09-02T06:51:56;94721.84;;;21.45;100.00
7990;BME280;4040;42.848;23.034;2022-09-02T06:57:46;94721.25;;;21.84;100.00
7990;BME280;4040;42.848;23.034;2022-09-02T07:03:36;94710.97;;;22.68;100.00
7990;BME280;4040;42.848;23.034;2022-09-02T07:09:42;94709.69;;;22.44;100.00
7990;BME280;4040;42.848;23.034;2022-09-02T07:15:31;94715.59;;;22.57;100.00
7990;BME280;4040;42.848;23.034;2022-09-02T07:25:44;94712.66;;;22.60;100.00
7990;BME280;4040;42.848;23.034;2022-09-02T07:31:33;94721.72;;;22.32;100.00
7990;BME280;4040;42.848;23.034;2022-09-02T07:37:22;94726.72;;;22.33;100.00
7990;BME280;4040;42.848;23.034;2022-09-02T07:43:12;94722.59;;;22.23;100.00
7990;BME280;4040;42.848;23.034;2022-09-02T07:49:03;94721.25;;;22.33;100.00
7990;BME280;4040;42.848;23.034;2022-09-02T07:54:54;94718.50;;;22.33;100.00
7990;BME280;4040;42.848;23.034;2022-09-02T08:00:45;94728.69;;;22.47;100.00
7990;BME280;4040;42.848;23.034;2022-09-02T08:06:34;94739.97;;;22.00;100.00
7990;BME280;4040;42.848;23.034;2022-09-02T08:12:23;94736.09;;;22.41;100.00
7990;BME280;4040;42.848;23.034;2022-09-02T08:18:13;94733.38;;;22.61;100.00
7990;BME280;4040;42.848;23.034;2022-09-02T08:28:24;94733.91;;;22.65;100.00
7990;BME280;4040;42.848;23.034;2022-09-02T08:34:15;94741.34;;;22.59;100.00
7990;BME280;4040;42.848;23.034;2022-09-02T08:40:06;94737.97;;;22.35;100.00
7990;BME280;4040;42.848;23.034;2022-09-02T08:45:57;94735.94;;;22.30;100.00
7990;BME280;4040;42.848;23.034;2022-09-02T08:51:52;94728.09;;;22.58;100.00
7990;BME280;4040;42.848;23.034;2022-09-02T08:57:44;94736.00;;;22.70;100.00
7990;BME280;4040;42.848;23.034;2022-09-02T09:03:38;94731.59;;;22.58;100.00
7990;BME280;4040;42.848;23.034;2022-09-02T09:09:40;94730.44;;;22.65;100.00
7990;BME280;4040;42.848;23.034;2022-09-02T09:15:39;94731.44;;;22.67;100.00
7990;BME280;4040;42.848;23.034;2022-09-02T09:21:31;94723.06;;;22.76;100.00
7990;BME280;4040;42.848;23.034;2022-09-02T09:24:00;94728.16;;;22.83;100.00
7990;BME280;4040;42.848;23.034;2022-09-02T09:29:52;94713.59;;;22.77;100.00
7990;BME280;4040;42.848;23.034;2022-09-02T09:35:47;94720.38;;;23.02;100.00
7990;BME280;4040;42.848;23.034;2022-09-02T09:41:37;94717.44;;;23.56;100.00
7990;BME280;4040;42.848;23.034;2022-09-02T09:47:27;94708.13;;;23.79;100.00
7990;BME280;4040;42.848;23.034;2022-09-02T09:53:20;94709.25;;;23.87;100.00
7990;BME280;4040;42.848;23.034;2022-09-02T09:59:33;94691.63;;;24.52;100.00
7990;BME280;4040;42.848;23.034;2022-09-02T10:05:31;94689.22;;;24.76;100.00
7990;BME280;4040;42.848;23.034;2022-09-02T10:11:23;94694.50;;;25.82;100.00
7990;BME280;4040;42.848;23.034;2022-09-02T10:17:21;94693.44;;;26.29;100.00
7990;BME280;4040;42.848;23.034;2022-09-02T10:23:21;94675.91;;;25.99;100.00
7990;BME280;4040;42.848;23.034;2022-09-02T10:29:31;94679.38;;;25.28;100.00
7990;BME280;4040;42.848;23.034;2022-09-02T10:35:25;94683.94;;;24.61;100.00
7990;BME280;4040;42.848;23.034;2022-09-02T10:41:31;94684.53;;;23.67;100.00
7990;BME280;4040;42.848;23.034;2022-09-02T10:47:32;94686.09;;;23.73;100.00
7990;BME280;4040;42.848;23.034;2022-09-02T10:59:39;94685.88;;;23.21;100.00
7990;BME280;4040;42.848;23.034;2022-09-02T11:05:38;94689.94;;;23.05;100.00
7990;BME280;4040;42.848;23.034;2022-09-02T11:11:31;94683.41;;;23.23;100.00
7990;BME280;4040;42.848;23.034;2022-09-02T11:17:31;94694.63;;;23.50;100.00
7990;BME280;4040;42.848;23.034;2022-09-02T11:23:29;94681.28;;;23.94;100.00
7990;BME280;4040;42.848;23.034;2022-09-02T11:29:29;94675.63;;;24.56;100.00
7990;BME280;4040;42.848;23.034;2022-09-02T11:35:24;94672.91;;;25.42;100.00
7990;BME280;4040;42.848;23.034;2022-09-02T11:41:25;94665.88;;;25.85;100.00
7990;BME280;4040;42.848;23.034;2022-09-02T11:47:30;94664.88;;;25.55;100.00
7990;BME280;4040;42.848;23.034;2022-09-02T11:53:27;94665.66;;;25.55;100.00
7990;BME280;4040;42.848;23.034;2022-09-02T11:59:22;94661.63;;;25.84;100.00
7990;BME280;4040;42.848;23.034;2022-09-02T12:05:46;94664.84;;;26.21;100.00
7990;BME280;4040;42.848;23.034;2022-09-02T12:11:52;94654.00;;;26.44;100.00
7990;BME280;4040;42.848;23.034;2022-09-02T12:18:11;94647.63;;;26.71;100.00
7990;BME280;4040;42.848;23.034;2022-09-02T12:24:19;94627.19;;;26.91;100.00
7990;BME280;4040;42.848;23.034;2022-09-02T12:30:11;94638.56;;;27.22;100.00
7990;BME280;4040;42.848;23.034;2022-09-02T12:36:01;94633.47;;;27.32;100.00
7990;BME280;4040;42.848;23.034;2022-09-02T12:41:54;94629.13;;;27.01;100.00
7990;BME280;4040;42.848;23.034;2022-09-02T12:47:57;94629.09;;;27.07;100.00
7990;BME280;4040;42.848;23.034;2022-09-02T12:53:49;94624.88;;;27.00;100.00
7990;BME280;4040;42.848;23.034;2022-09-02T12:59:40;94625.84;;;26.57;100.00
7990;BME280;4040;42.848;23.034;2022-09-02T13:05:42;94618.13;;;26.34;100.00
7990;BME280;4040;42.848;23.034;2022-09-02T13:11:45;94618.47;;;26.03;100.00
7990;BME280;4040;42.848;23.034;2022-09-02T13:17:46;94616.22;;;25.79;100.00
7990;BME280;4040;42.848;23.034;2022-09-02T13:23:58;94611.59;;;26.31;100.00
7990;BME280;4040;42.848;23.034;2022-09-02T13:30:23;94599.41;;;25.99;100.00
7990;BME280;4040;42.848;23.034;2022-09-02T13:36:25;94616.66;;;26.22;100.00
7990;BME280;4040;42.848;23.034;2022-09-02T13:42:19;94615.66;;;26.25;100.00
7990;BME280;4040;42.848;23.034;2022-09-02T13:48:14;94611.91;;;26.17;100.00
7990;BME280;4040;42.848;23.034;2022-09-02T13:54:03;94616.22;;;25.96;100.00
7990;BME280;4040;42.848;23.034;2022-09-02T13:59:55;94624.69;;;24.99;100.00
7990;BME280;4040;42.848;23.034;2022-09-02T14:05:46;94629.91;;;23.49;100.00
7990;BME280;4040;42.848;23.034;2022-09-02T14:11:39;94637.38;;;22.92;100.00
7990;BME280;4040;42.848;23.034;2022-09-02T14:17:30;94647.88;;;22.48;100.00
7990;BME280;4040;42.848;23.034;2022-09-02T14:23:21;94660.84;;;22.13;100.00
7990;BME280;4040;42.848;23.034;2022-09-02T14:29:13;94664.25;;;21.88;100.00
7990;BME280;4040;42.848;23.034;2022-09-02T14:35:19;94657.16;;;21.18;100.00
7990;BME280;4040;42.848;23.034;2022-09-02T14:41:11;94670.72;;;20.98;100.00
7990;BME280;4040;42.848;23.034;2022-09-02T14:47:04;94695.69;;;20.39;100.00
7990;BME280;4040;42.848;23.034;2022-09-02T14:53:00;94696.78;;;20.09;100.00
7990;BME280;4040;42.848;23.034;2022-09-02T14:58:51;94719.47;;;19.92;100.00
7990;BME280;4040;42.848;23.034;2022-09-02T15:04:39;94722.53;;;19.43;100.00
7990;BME280;4040;42.848;23.034;2022-09-02T15:10:30;94724.88;;;18.64;100.00
7990;BME280;4040;42.848;23.034;2022-09-02T15:16:19;94732.44;;;18.33;100.00
7990;BME280;4040;42.848;23.034;2022-09-02T15:22:08;94760.00;;;18.35;100.00
7990;BME280;4040;42.848;23.034;2022-09-02T15:28:00;94760.00;;;18.35;100.00
7990;BME280;4040;42.848;23.034;2022-09-02T15:33:50;94761.81;;;18.38;100.00
7990;BME280;4040;42.848;23.034;2022-09-02T15:39:38;94790.84;;;18.23;100.00
7990;BME280;4040;42.848;23.034;2022-09-02T15:45:29;94798.91;;;17.96;100.00
7990;BME280;4040;42.848;23.034;2022-09-02T15:51:18;94793.34;;;17.99;100.00
7990;BME280;4040;42.848;23.034;2022-09-02T15:57:08;94809.28;;;18.19;100.00
7990;BME280;4040;42.848;23.034;2022-09-02T16:02:59;94823.22;;;18.12;100.00
7990;BME280;4040;42.848;23.034;2022-09-02T16:08:48;94826.13;;;18.17;100.00
7990;BME280;4040;42.848;23.034;2022-09-02T16:14:37;94818.50;;;18.12;100.00
7990;BME280;4040;42.848;23.034;2022-09-02T16:20:27;94806.72;;;18.15;100.00
7990;BME280;4040;42.848;23.034;2022-09-02T16:30:17;94816.84;;;18.15;100.00
7990;BME280;4040;42.848;23.034;2022-09-02T16:36:07;94821.69;;;18.11;100.00
7990;BME280;4040;42.848;23.034;2022-09-02T16:41:56;94824.28;;;17.84;100.00
7990;BME280;4040;42.848;23.034;2022-09-02T16:47:50;94831.84;;;17.80;100.00
7990;BME280;4040;42.848;23.034;2022-09-02T16:53:40;94820.91;;;17.71;100.00
7990;BME280;4040;42.848;23.034;2022-09-02T16:59:29;94831.03;;;17.71;100.00
7990;BME280;4040;42.848;23.034;2022-09-02T17:05:17;94831.94;;;17.46;100.00
7990;BME280;4040;42.848;23.034;2022-09-02T17:11:18;94827.75;;;17.33;100.00
7990;BME280;4040;42.848;23.034;2022-09-02T17:17:08;94829.63;;;17.23;100.00
7990;BME280;4040;42.848;23.034;2022-09-02T17:23:01;94828.13;;;17.22;100.00
7990;BME280;4040;42.848;23.034;2022-09-02T17:33:14;94850.53;;;17.26;100.00
7990;BME280;4040;42.848;23.034;2022-09-02T17:39:04;94846.22;;;17.16;100.00
7990;BME280;4040;42.848;23.034;2022-09-02T17:44:54;94849.88;;;17.22;100.00
7990;BME280;4040;42.848;23.034;2022-09-02T17:50:45;94848.00;;;17.10;100.00
7990;BME280;4040;42.848;23.034;2022-09-02T17:56:55;94853.44;;;17.10;100.00
7990;BME280;4040;42.848;23.034;2022-09-02T18:03:03;94859.38;;;16.96;100.00
7990;BME280;4040;42.848;23.034;2022-09-02T18:08:59;94865.66;;;16.93;100.00
7990;BME280;4040;42.848;23.034;2022-09-02T18:14:53;94865.25;;;16.82;100.00
7990;BME280;4040;42.848;23.034;2022-09-02T18:20:43;94880.84;;;16.82;100.00
7990;BME280;4040;42.848;23.034;2022-09-02T18:26:47;94892.56;;;16.79;100.00
7990;BME280;4040;42.848;23.034;2022-09-02T18:32:57;94915.44;;;16.81;100.00
7990;BME280;4040;42.848;23.034;2022-09-02T18:39:00;94903.47;;;16.79;100.00
7990;BME280;4040;42.848;23.034;2022-09-02T18:44:58;94920.22;;;16.77;100.00
7990;BME280;4040;42.848;23.034;2022-09-02T18:50:55;94919.91;;;16.75;100.00
7990;BME280;4040;42.848;23.034;2022-09-02T18:56:48;94912.97;;;16.74;100.00
7990;BME280;4040;42.848;23.034;2022-09-02T19:02:45;94923.25;;;16.92;100.00
7990;BME280;4040;42.848;23.034;2022-09-02T19:08:36;94926.00;;;16.79;100.00
7990;BME280;4040;42.848;23.034;2022-09-02T19:14:26;94929.28;;;16.74;100.00
7990;BME280;4040;42.848;23.034;2022-09-02T19:20:18;94923.59;;;16.81;100.00
7990;BME280;4040;42.848;23.034;2022-09-02T19:26:07;94925.56;;;16.68;100.00
7990;BME280;4040;42.848;23.034;2022-09-02T19:36:19;94931.22;;;16.61;100.00
7990;BME280;4040;42.848;23.034;2022-09-02T19:42:08;94932.09;;;16.46;100.00
7990;BME280;4040;42.848;23.034;2022-09-02T19:47:57;94928.97;;;16.47;100.00
7990;BME280;4040;42.848;23.034;2022-09-02T19:53:48;94922.44;;;16.45;100.00
7990;BME280;4040;42.848;23.034;2022-09-02T19:59:36;94917.59;;;16.24;100.00
7990;BME280;4040;42.848;23.034;2022-09-02T20:05:25;94920.09;;;16.18;100.00
7990;BME280;4040;42.848;23.034;2022-09-02T20:11:15;94921.31;;;16.17;100.00
7990;BME280;4040;42.848;23.034;2022-09-02T20:17:07;94932.28;;;16.26;100.00
7990;BME280;4040;42.848;23.034;2022-09-02T20:22:56;94923.03;;;16.24;100.00
7990;BME280;4040;42.848;23.034;2022-09-02T20:28:57;94911.09;;;16.09;100.00
7990;BME280;4040;42.848;23.034;2022-09-02T20:39:22;94923.72;;;16.28;100.00
7990;BME280;4040;42.848;23.034;2022-09-02T20:45:22;94920.97;;;16.15;100.00
7990;BME280;4040;42.848;23.034;2022-09-02T20:51:17;94923.25;;;16.29;100.00
7990;BME280;4040;42.848;23.034;2022-09-02T20:57:25;94924.13;;;16.26;100.00
7990;BME280;4040;42.848;23.034;2022-09-02T21:03:20;94932.09;;;16.33;100.00
7990;BME280;4040;42.848;23.034;2022-09-02T21:09:16;94907.63;;;16.21;100.00
7990;BME280;4040;42.848;23.034;2022-09-02T21:15:12;94932.09;;;16.33;100.00
7990;BME280;4040;42.848;23.034;2022-09-02T21:21:16;94938.09;;;16.41;100.00
7990;BME280;4040;42.848;23.034;2022-09-02T21:53:17;94948.28;;;16.24;100.00
7990;BME280;4040;42.848;23.034;2022-09-02T21:59:17;94915.31;;;15.97;100.00
7990;BME280;4040;42.848;23.034;2022-09-02T22:08:39;94943.25;;;15.98;100.00
7990;BME280;4040;42.848;23.034;2022-09-02T22:14:36;94951.41;;;16.10;100.00
7990;BME280;4040;42.848;23.034;2022-09-02T22:20:30;94950.44;;;16.17;100.00
7990;BME280;4040;42.848;23.034;2022-09-02T22:26:33;94933.34;;;15.91;100.00
7990;BME280;4040;42.848;23.034;2022-09-02T22:32:29;94950.28;;;15.95;100.00
7990;BME280;4040;42.848;23.034;2022-09-02T22:38:21;94948.03;;;16.06;100.00
7990;BME280;4040;42.848;23.034;2022-09-02T22:44:19;94944.25;;;16.29;100.00
7990;BME280;4040;42.848;23.034;2022-09-02T22:50:12;94940.13;;;16.24;100.00
7990;BME280;4040;42.848;23.034;2022-09-02T22:56:28;94937.94;;;16.19;100.00
7990;BME280;4040;42.848;23.034;2022-09-02T23:02:26;94929.88;;;16.16;100.00
7990;BME280;4040;42.848;23.034;2022-09-02T23:08:16;94907.47;;;15.99;100.00
7990;BME280;4040;42.848;23.034;2022-09-02T23:14:10;94933.38;;;16.16;100.00
7990;BME280;4040;42.848;23.034;2022-09-02T23:20:12;94926.41;;;16.15;100.00
7990;BME280;4040;42.848;23.034;2022-09-02T23:26:19;94929.78;;;16.19;100.00
7990;BME280;4040;42.848;23.034;2022-09-02T23:32:41;94930.53;;;16.07;100.00
7990;BME280;4040;42.848;23.034;2022-09-02T23:38:46;94933.22;;;15.95;100.00
7990;BME280;4040;42.848;23.034;2022-09-02T23:44:41;94944.75;;;15.99;100.00
7990;BME280;4040;42.848;23.034;2022-09-02T23:50:35;94937.91;;;15.94;100.00
7990;BME280;4040;42.848;23.034;2022-09-02T23:56:47;94946.56;;;15.89;100.00
